Weather at Saint Helena Airport

Public forecast

Using degrees Celsius for public forecast. Weather courtesy of forecast.io.

Closest aviation weather report (METAR) to Saint Helena Airport

Report is more than 6 hours old.

Closest report is Welwitschia Mirabilis International Airport, 1,029.4 nm (1,906.5 km) E.

2022/11/14 14:00 (retrieved 2 years ago)

FNMO 141400Z 32012KT CAVOK 24/18 Q1011

Closest aviation forecast (TAF) to Saint Helena Airport

Forecast is more than 12 hours old.

Closest forecast is Welwitschia Mirabilis International Airport, 1,029.4 nm (1,906.5 km) E.

2023/02/22 12:00 (retrieved 1 year ago)

TAF FNMO 221100Z 2212/2224 26008G22KT 9999 FEW015